Time;durP1;ratioP1;P1;durP2;ratioP2;P2;SDS_P1;SDS_P2;PMS_P1;PMS_P2;Temp;Humidity;BMP_temperature;BMP_pressure;BME280_temperature;BME280_humidity;BME280_pressure;Samples;Min_cycle;Max_cycle;Signal;HPM_P1;HPM_P2
2021/09/12 00:01:23;;;;;;;6.30;5.70;;;16.70;99.90;;;;;;5118028;28;20180;-44
2021/09/12 00:03:49;;;;;;;5.40;5.00;;;16.70;99.90;;;;;;5117615;28;20179;-44
2021/09/12 00:06:15;;;;;;;5.40;4.90;;;16.60;99.90;;;;;;5117799;28;20260;-44
2021/09/12 00:08:40;;;;;;;5.57;5.07;;;16.60;99.90;;;;;;5118250;28;20180;-44
2021/09/12 00:11:06;;;;;;;5.70;5.20;;;16.60;99.90;;;;;;5118056;28;20187;-45
2021/09/12 00:13:32;;;;;;;5.37;4.87;;;16.60;99.90;;;;;;5118213;28;20251;-44
2021/09/12 00:15:58;;;;;;;5.33;4.93;;;16.60;99.90;;;;;;5107574;28;20522;-44
2021/09/12 00:18:24;;;;;;;4.60;4.20;;;16.60;99.90;;;;;;5100641;28;20183;-44
2021/09/12 00:20:49;;;;;;;5.83;5.33;;;16.50;99.90;;;;;;5117998;28;20180;-44
2021/09/12 00:23:15;;;;;;;5.33;4.83;;;16.50;99.90;;;;;;5118309;28;20175;-44
2021/09/12 00:25:41;;;;;;;5.07;4.53;;;16.50;99.90;;;;;;5118012;28;20270;-44
2021/09/12 00:28:07;;;;;;;4.93;4.57;;;16.50;99.90;;;;;;5118226;28;20287;-44
2021/09/12 00:30:33;;;;;;;8.30;4.50;;;16.50;99.90;;;;;;5117926;28;20179;-44
2021/09/12 00:32:58;;;;;;;4.75;4.18;;;16.50;99.90;;;;;;5117923;28;20165;-44
2021/09/12 00:35:24;;;;;;;6.90;4.40;;;16.50;99.90;;;;;;5117728;28;20270;-44
2021/09/12 00:37:50;;;;;;;4.50;4.13;;;16.50;99.90;;;;;;5117786;28;20177;-44
2021/09/12 00:40:19;;;;;;;4.87;4.47;;;16.50;99.90;;;;;;5117887;28;20443;-45
2021/09/12 00:42:44;;;;;;;5.43;5.00;;;16.40;99.90;;;;;;5116757;28;20409;-44
2021/09/12 00:45:10;;;;;;;5.20;4.53;;;16.40;99.90;;;;;;5117601;28;20523;-44
2021/09/12 00:47:36;;;;;;;4.82;4.43;;;16.40;99.90;;;;;;5118036;28;20206;-44
2021/09/12 00:50:03;;;;;;;6.07;5.10;;;16.30;99.90;;;;;;5117491;28;20609;-44
2021/09/12 00:52:29;;;;;;;9.32;4.72;;;16.30;99.90;;;;;;5117922;28;20445;-44
2021/09/12 00:54:55;;;;;;;4.43;4.10;;;16.30;99.90;;;;;;5115848;28;20239;-44
2021/09/12 00:57:22;;;;;;;4.90;4.40;;;16.30;99.90;;;;;;5116706;28;20417;-44
2021/09/12 00:59:49;;;;;;;5.77;5.17;;;16.30;99.90;;;;;;5117252;28;20441;-44
2021/09/12 01:02:18;;;;;;;5.40;4.90;;;16.30;99.90;;;;;;5116838;28;20712;-44
2021/09/12 01:04:44;;;;;;;5.13;4.70;;;16.30;99.90;;;;;;5117507;28;20425;-44
2021/09/12 01:07:10;;;;;;;5.80;5.30;;;16.30;99.90;;;;;;5115311;28;20729;-44
2021/09/12 01:09:36;;;;;;;6.00;5.50;;;16.30;99.90;;;;;;5116399;28;20428;-44
2021/09/12 01:12:03;;;;;;;5.43;5.03;;;16.30;99.90;;;;;;5117171;28;20861;-44
2021/09/12 01:14:30;;;;;;;5.00;4.50;;;16.20;99.90;;;;;;5116819;28;20429;-44
2021/09/12 01:16:56;;;;;;;4.97;4.57;;;16.20;99.90;;;;;;5120327;28;20536;-45
2021/09/12 01:19:21;;;;;;;5.07;4.43;;;16.20;99.90;;;;;;5120398;28;20520;-45
2021/09/12 01:21:47;;;;;;;5.97;5.17;;;16.20;99.90;;;;;;5121162;28;20573;-45
2021/09/12 01:24:13;;;;;;;5.80;4.93;;;16.20;99.90;;;;;;5120464;28;20178;-45
2021/09/12 01:26:39;;;;;;;5.53;5.03;;;16.20;99.90;;;;;;5120182;28;20566;-45
2021/09/12 01:29:05;;;;;;;5.53;4.80;;;16.20;99.90;;;;;;5119670;28;20691;-45
2021/09/12 01:31:43;;;;;;;4.50;4.10;;;16.20;99.90;;;;;;5119880;28;20242;-45
2021/09/12 01:34:09;;;;;;;6.57;5.60;;;16.10;99.90;;;;;;5119331;28;20258;-44
2021/09/12 01:36:35;;;;;;;4.60;4.20;;;16.10;99.90;;;;;;5119630;28;20229;-45
2021/09/12 01:39:01;;;;;;;4.70;4.30;;;16.10;99.90;;;;;;5119699;28;20167;-45
2021/09/12 01:41:26;;;;;;;6.10;5.53;;;16.10;99.90;;;;;;5118930;28;20420;-45
2021/09/12 01:43:58;;;;;;;5.63;5.10;;;16.10;99.90;;;;;;5120083;28;20506;-45
2021/09/12 01:46:24;;;;;;;6.80;4.97;;;16.00;99.90;;;;;;5119556;28;20230;-45
2021/09/12 01:48:51;;;;;;;5.27;4.83;;;15.80;99.90;;;;;;5119108;28;20414;-44
2021/09/12 01:51:18;;;;;;;8.17;5.43;;;15.70;99.90;;;;;;5118245;28;20425;-44
2021/09/12 01:53:44;;;;;;;6.15;5.65;;;15.50;99.90;;;;;;5124889;27;20467;-45
2021/09/12 01:56:10;;;;;;;6.10;5.20;;;15.40;99.90;;;;;;5139175;27;20178;-44
2021/09/12 01:58:36;;;;;;;5.53;5.03;;;15.30;99.90;;;;;;5140319;27;20174;-44
2021/09/12 02:01:02;;;;;;;6.50;5.13;;;15.20;99.90;;;;;;5139937;27;20711;-44
2021/09/12 02:03:28;;;;;;;6.20;5.60;;;15.10;99.90;;;;;;5139517;27;20182;-45
2021/09/12 02:05:53;;;;;;;5.60;5.10;;;15.00;99.90;;;;;;5139153;27;20451;-45
2021/09/12 02:08:19;;;;;;;5.70;5.20;;;15.00;99.90;;;;;;5138898;27;20247;-44
2021/09/12 02:10:44;;;;;;;5.33;4.83;;;15.00;99.90;;;;;;5139565;27;20433;-45
2021/09/12 02:13:14;;;;;;;5.30;4.80;;;14.90;99.90;;;;;;5139474;27;20232;-45
2021/09/12 02:15:40;;;;;;;6.50;5.90;;;14.90;99.90;;;;;;5139048;27;20171;-45
2021/09/12 02:18:06;;;;;;;7.00;5.47;;;14.80;99.90;;;;;;5140145;27;20439;-44
2021/09/12 02:20:32;;;;;;;5.37;4.87;;;14.70;99.90;;;;;;5139933;27;20429;-45
2021/09/12 02:22:58;;;;;;;5.63;4.93;;;14.60;99.90;;;;;;5140132;27;20174;-45
2021/09/12 02:25:24;;;;;;;5.73;5.23;;;14.60;99.90;;;;;;5140897;27;20424;-45
2021/09/12 02:27:49;;;;;;;5.80;5.27;;;14.50;99.90;;;;;;5139707;27;20222;-44
2021/09/12 02:30:15;;;;;;;6.10;5.50;;;14.50;99.90;;;;;;5122121;27;20460;-44
2021/09/12 02:32:41;;;;;;;5.40;4.90;;;14.50;99.90;;;;;;5139867;27;20359;-44
2021/09/12 02:35:08;;;;;;;7.00;5.37;;;14.50;99.90;;;;;;5140237;27;20469;-45
2021/09/12 02:37:34;;;;;;;5.97;5.20;;;14.40;99.90;;;;;;5121198;27;20201;-45
2021/09/12 02:40:00;;;;;;;6.37;5.77;;;14.30;99.90;;;;;;5120895;27;20267;-45
2021/09/12 02:42:26;;;;;;;6.57;6.00;;;14.30;99.90;;;;;;5139624;27;20413;-44
2021/09/12 02:44:52;;;;;;;5.47;4.97;;;14.30;99.90;;;;;;5140073;27;20443;-44
2021/09/12 02:47:19;;;;;;;6.27;5.53;;;14.30;99.90;;;;;;5139915;27;20457;-44
2021/09/12 02:49:44;;;;;;;6.40;5.80;;;14.30;99.90;;;;;;5139556;27;20221;-45
2021/09/12 02:52:11;;;;;;;5.80;5.20;;;14.30;99.90;;;;;;5139738;27;20490;-45
2021/09/12 02:54:37;;;;;;;5.40;5.00;;;14.30;99.90;;;;;;5139504;27;20246;-45
2021/09/12 02:57:03;;;;;;;5.80;4.83;;;14.40;99.90;;;;;;5139012;27;20710;-45
2021/09/12 02:59:29;;;;;;;5.60;5.10;;;14.40;99.90;;;;;;5139234;27;20427;-45
2021/09/12 03:01:54;;;;;;;5.63;5.10;;;14.40;99.90;;;;;;5139807;27;20412;-44
2021/09/12 03:04:20;;;;;;;5.00;4.53;;;14.40;99.90;;;;;;5139874;27;20187;-45
2021/09/12 03:06:45;;;;;;;6.30;5.20;;;14.30;99.90;;;;;;5139208;27;20240;-44
2021/09/12 03:09:11;;;;;;;5.20;4.80;;;14.30;99.90;;;;;;5138809;27;20413;-44
2021/09/12 03:11:37;;;;;;;5.50;5.07;;;14.30;99.90;;;;;;5139696;27;20175;-44
2021/09/12 03:14:02;;;;;;;4.97;4.43;;;14.30;99.90;;;;;;5138649;27;20499;-44
2021/09/12 03:16:28;;;;;;;4.87;4.47;;;14.30;99.90;;;;;;5139508;27;20175;-44
2021/09/12 03:18:54;;;;;;;4.60;4.20;;;14.20;99.90;;;;;;5138249;27;20259;-44
2021/09/12 03:21:20;;;;;;;5.33;4.30;;;14.20;99.90;;;;;;5138118;27;20439;-44
2021/09/12 03:23:46;;;;;;;4.93;4.43;;;14.20;99.90;;;;;;5137630;27;20198;-44
2021/09/12 03:26:11;;;;;;;4.83;4.43;;;14.20;99.90;;;;;;5137766;27;20475;-44
2021/09/12 03:28:38;;;;;;;5.67;5.17;;;14.20;99.90;;;;;;5119175;27;20831;-44
2021/09/12 03:31:05;;;;;;;5.25;4.85;;;14.10;99.90;;;;;;5137476;27;20468;-44
2021/09/12 03:33:30;;;;;;;5.50;5.00;;;14.10;99.90;;;;;;5119083;27;20179;-44
2021/09/12 03:35:56;;;;;;;5.73;5.00;;;14.00;99.90;;;;;;5137647;27;20416;-44
2021/09/12 03:38:22;;;;;;;4.30;3.90;;;14.00;99.90;;;;;;5138054;27;20564;-44
2021/09/12 03:40:48;;;;;;;7.90;4.60;;;14.00;99.90;;;;;;5136859;27;20186;-44
2021/09/12 03:43:13;;;;;;;5.50;5.10;;;14.00;99.90;;;;;;5118249;27;20754;-44
2021/09/12 03:45:39;;;;;;;6.83;5.27;;;14.00;99.90;;;;;;5136845;27;20175;-44
2021/09/12 03:48:05;;;;;;;4.80;4.43;;;13.90;99.90;;;;;;5137678;27;20641;-44
2021/09/12 03:50:31;;;;;;;4.97;4.47;;;13.90;99.90;;;;;;5137788;27;20682;-44
2021/09/12 03:52:57;;;;;;;5.27;4.80;;;13.90;99.90;;;;;;5137805;27;20440;-44
2021/09/12 03:55:22;;;;;;;5.20;4.80;;;14.00;99.90;;;;;;5138136;27;20487;-44
2021/09/12 03:57:49;;;;;;;6.00;4.77;;;13.90;99.90;;;;;;5138855;27;20401;-44
2021/09/12 04:00:15;;;;;;;5.77;5.17;;;13.90;99.90;;;;;;5138683;27;20175;-44
2021/09/12 04:02:41;;;;;;;4.80;4.40;;;13.80;99.90;;;;;;5139112;27;20413;-46
2021/09/12 04:05:07;;;;;;;5.20;4.80;;;13.80;99.90;;;;;;5138643;27;20676;-46
2021/09/12 04:07:33;;;;;;;5.07;4.50;;;13.80;99.90;;;;;;5138952;27;20540;-46
2021/09/12 04:09:59;;;;;;;5.07;4.57;;;13.80;99.90;;;;;;5138786;27;20481;-46
2021/09/12 04:12:24;;;;;;;5.00;4.47;;;13.70;99.90;;;;;;5138395;28;20167;-46
2021/09/12 04:14:50;;;;;;;4.57;4.17;;;13.70;99.90;;;;;;5138237;28;20237;-46
2021/09/12 04:17:16;;;;;;;4.73;4.30;;;13.70;99.90;;;;;;5137707;28;20171;-46
2021/09/12 04:19:42;;;;;;;5.80;4.43;;;13.70;99.90;;;;;;5137617;27;20175;-46
2021/09/12 04:22:07;;;;;;;5.93;3.93;;;13.70;99.90;;;;;;5137843;27;20419;-46
2021/09/12 04:24:33;;;;;;;6.17;4.00;;;13.70;99.90;;;;;;5137481;27;20183;-46
2021/09/12 04:26:58;;;;;;;4.77;4.07;;;13.70;99.90;;;;;;5137468;27;20479;-46
2021/09/12 04:29:24;;;;;;;4.60;3.97;;;13.70;99.90;;;;;;5136790;27;20261;-46
2021/09/12 04:31:50;;;;;;;5.20;4.80;;;13.60;99.90;;;;;;5120427;27;20448;-46
2021/09/12 04:34:16;;;;;;;5.40;4.90;;;13.60;99.90;;;;;;5137237;27;20428;-46
2021/09/12 04:36:42;;;;;;;9.43;5.17;;;13.60;99.90;;;;;;5138034;27;20704;-46
2021/09/12 04:39:07;;;;;;;5.10;4.70;;;13.50;99.90;;;;;;5138287;27;20171;-46
2021/09/12 04:41:33;;;;;;;4.80;4.40;;;13.60;99.90;;;;;;5137524;28;20576;-46
2021/09/12 04:43:59;;;;;;;6.20;5.70;;;13.50;99.90;;;;;;5137472;27;20168;-46
2021/09/12 04:46:25;;;;;;;5.00;4.60;;;13.50;99.90;;;;;;5136522;28;20187;-46
2021/09/12 04:48:50;;;;;;;5.70;5.10;;;13.50;99.90;;;;;;5136315;27;20175;-46
2021/09/12 04:51:16;;;;;;;5.60;5.10;;;13.60;99.90;;;;;;5138196;27;20744;-46
2021/09/12 04:53:41;;;;;;;6.50;5.07;;;13.60;99.90;;;;;;5140043;27;20651;-46
2021/09/12 04:56:07;;;;;;;6.40;4.93;;;13.60;99.90;;;;;;5121397;27;20255;-46
2021/09/12 04:58:33;;;;;;;4.90;4.50;;;13.60;99.90;;;;;;5140713;27;20171;-46
2021/09/12 05:00:59;;;;;;;5.60;5.20;;;13.60;99.90;;;;;;5140702;27;20259;-46
2021/09/12 05:03:24;;;;;;;4.80;4.30;;;13.60;99.90;;;;;;5140945;27;20167;-46
2021/09/12 05:05:50;;;;;;;4.90;4.50;;;13.60;99.90;;;;;;5140493;27;20757;-46
2021/09/12 05:08:15;;;;;;;5.03;4.53;;;13.50;99.90;;;;;;5141838;27;20275;-46
2021/09/12 05:10:41;;;;;;;5.73;5.23;;;13.50;99.90;;;;;;5141788;27;20201;-46
2021/09/12 05:13:07;;;;;;;4.80;4.40;;;13.50;99.90;;;;;;5141898;27;20411;-46
2021/09/12 05:15:32;;;;;;;4.93;4.43;;;13.60;99.90;;;;;;5142356;27;20217;-46
2021/09/12 05:17:58;;;;;;;7.70;5.00;;;13.60;99.90;;;;;;5142104;27;20270;-46
2021/09/12 05:20:24;;;;;;;5.70;4.43;;;13.60;99.90;;;;;;5141443;27;20175;-46
2021/09/12 05:22:50;;;;;;;4.90;4.00;;;13.70;99.90;;;;;;5142083;27;20416;-46
2021/09/12 05:25:16;;;;;;;4.63;4.20;;;13.70;99.90;;;;;;5141575;27;20202;-46
2021/09/12 05:27:41;;;;;;;5.80;4.70;;;13.80;99.90;;;;;;5123683;27;20467;-47
2021/09/12 05:30:08;;;;;;;4.80;4.40;;;13.80;99.90;;;;;;5141800;27;20198;-46
2021/09/12 05:32:33;;;;;;;4.85;4.45;;;13.80;99.90;;;;;;5141132;27;20182;-46
2021/09/12 05:34:59;;;;;;;7.43;4.40;;;13.90;99.90;;;;;;5141885;27;20269;-46
2021/09/12 05:37:25;;;;;;;4.67;4.17;;;14.00;99.90;;;;;;5141963;27;20171;-46
2021/09/12 05:39:50;;;;;;;5.20;4.40;;;14.00;99.90;;;;;;5140949;27;20198;-46
2021/09/12 05:42:16;;;;;;;4.13;3.73;;;14.00;99.90;;;;;;5136161;27;20195;-46
2021/09/12 05:44:42;;;;;;;4.60;4.17;;;14.00;99.90;;;;;;5120174;28;20520;-46
2021/09/12 05:47:07;;;;;;;4.77;4.37;;;14.10;99.90;;;;;;5120873;28;20290;-46
2021/09/12 05:49:33;;;;;;;5.23;4.60;;;14.10;99.90;;;;;;5120223;28;20421;-46
2021/09/12 05:51:58;;;;;;;4.93;4.53;;;14.10;99.90;;;;;;5120410;28;20164;-46
2021/09/12 05:54:24;;;;;;;4.60;4.20;;;14.20;99.90;;;;;;5120380;28;20314;-46
2021/09/12 05:56:50;;;;;;;5.10;4.60;;;14.20;99.90;;;;;;5119839;28;20413;-46
2021/09/12 05:59:15;;;;;;;5.10;4.43;;;14.30;99.90;;;;;;5119362;28;20429;-46
2021/09/12 06:01:41;;;;;;;5.50;5.00;;;14.50;99.90;;;;;;5100874;28;20760;-46
2021/09/12 06:04:07;;;;;;;5.47;4.97;;;14.60;99.90;;;;;;5118591;28;20413;-46
2021/09/12 06:06:32;;;;;;;4.90;4.17;;;14.70;99.90;;;;;;5118899;28;20191;-46
2021/09/12 06:08:58;;;;;;;5.13;4.63;;;14.90;99.90;;;;;;5117936;28;20312;-46
2021/09/12 06:11:25;;;;;;;5.27;4.77;;;15.00;99.90;;;;;;5119608;28;20164;-47
2021/09/12 06:13:53;;;;;;;5.20;4.70;;;15.10;99.90;;;;;;5120300;28;20169;-46
2021/09/12 06:16:19;;;;;;;6.63;5.03;;;15.20;99.90;;;;;;5120156;28;20263;-46
2021/09/12 06:18:44;;;;;;;5.50;5.00;;;15.30;99.90;;;;;;5120297;28;20796;-46
2021/09/12 06:21:10;;;;;;;4.93;4.43;;;15.50;99.90;;;;;;5120670;28;20229;-46
2021/09/12 06:23:36;;;;;;;4.80;4.40;;;15.60;99.90;;;;;;5119692;28;20164;-46
2021/09/12 06:26:01;;;;;;;4.87;4.37;;;15.80;99.90;;;;;;5119791;28;20178;-46
2021/09/12 06:28:27;;;;;;;5.50;5.10;;;16.00;99.90;;;;;;5119725;28;20461;-46
2021/09/12 06:30:53;;;;;;;5.37;4.97;;;16.20;99.90;;;;;;5119668;28;20462;-47
2021/09/12 06:33:19;;;;;;;4.30;3.93;;;16.30;99.80;;;;;;5119460;28;20650;-47
2021/09/12 06:35:45;;;;;;;4.40;4.00;;;16.50;99.70;;;;;;5119642;28;20422;-46
2021/09/12 06:38:11;;;;;;;5.27;4.87;;;16.60;99.80;;;;;;5118998;28;20597;-47
2021/09/12 06:40:37;;;;;;;4.80;4.40;;;16.80;99.50;;;;;;5126543;27;20442;-47
2021/09/12 06:43:03;;;;;;;4.97;4.33;;;17.00;99.40;;;;;;5139496;27;20417;-47
2021/09/12 06:45:30;;;;;;;5.17;4.77;;;17.20;99.20;;;;;;5139970;27;20523;-47
2021/09/12 06:47:56;;;;;;;5.53;4.67;;;17.30;98.90;;;;;;5139717;27;20499;-47
2021/09/12 06:50:22;;;;;;;5.80;5.32;;;17.50;98.50;;;;;;5139557;27;20436;-47
2021/09/12 06:52:48;;;;;;;5.80;5.30;;;17.60;97.60;;;;;;5139394;27;20476;-47
2021/09/12 06:55:14;;;;;;;5.50;4.90;;;17.70;97.90;;;;;;5138798;27;20468;-47
2021/09/12 06:57:39;;;;;;;5.07;4.63;;;17.90;97.80;;;;;;5139166;27;20432;-47
2021/09/12 07:00:06;;;;;;;5.27;4.87;;;18.00;97.50;;;;;;5136126;27;20528;-47
2021/09/12 07:02:32;;;;;;;7.10;5.63;;;18.20;97.30;;;;;;5119537;28;20172;-47
2021/09/12 07:04:57;;;;;;;5.23;4.73;;;18.30;96.60;;;;;;5127738;27;20447;-47
2021/09/12 07:07:23;;;;;;;5.17;4.73;;;18.50;96.60;;;;;;5134899;27;20686;-47
2021/09/12 07:09:49;;;;;;;5.13;4.63;;;18.50;96.40;;;;;;5117969;28;20172;-46
2021/09/12 07:12:14;;;;;;;7.38;5.30;;;18.60;95.70;;;;;;5117409;28;20194;-47
2021/09/12 07:14:40;;;;;;;5.33;4.93;;;18.30;96.20;;;;;;5117008;28;20180;-47
2021/09/12 07:17:06;;;;;;;5.40;4.90;;;18.40;96.70;;;;;;5119064;27;20171;-47
2021/09/12 07:19:32;;;;;;;5.80;5.30;;;18.60;96.80;;;;;;5135876;27;20201;-47
2021/09/12 07:21:58;;;;;;;6.07;5.47;;;18.90;96.60;;;;;;5137545;27;20454;-47
2021/09/12 07:24:23;;;;;;;4.83;4.40;;;19.00;96.00;;;;;;5119663;27;20203;-47
2021/09/12 07:26:50;;;;;;;5.40;5.00;;;19.40;96.00;;;;;;5136556;27;20206;-46
2021/09/12 07:29:16;;;;;;;5.23;4.47;;;19.50;96.00;;;;;;5116680;28;20191;-46
2021/09/12 07:31:41;;;;;;;4.73;4.40;;;20.10;96.20;;;;;;5107437;27;20473;-46
2021/09/12 07:34:07;;;;;;;5.17;4.77;;;20.70;94.90;;;;;;5137523;27;20239;-46
2021/09/12 07:36:33;;;;;;;5.03;4.63;;;21.50;94.50;;;;;;5119638;27;20423;-46
2021/09/12 07:38:58;;;;;;;4.40;4.00;;;22.30;93.80;;;;;;5137583;27;20197;-46
2021/09/12 07:41:24;;;;;;;4.30;3.90;;;23.20;92.20;;;;;;5139144;27;20175;-47
2021/09/12 07:43:50;;;;;;;4.40;3.93;;;23.90;90.60;;;;;;5139108;27;20413;-47
2021/09/12 07:46:16;;;;;;;3.87;3.57;;;24.60;88.60;;;;;;5139161;27;20269;-47
2021/09/12 07:48:41;;;;;;;4.50;3.80;;;25.20;85.90;;;;;;5138672;27;20271;-47
2021/09/12 07:51:07;;;;;;;3.87;3.57;;;25.70;85.40;;;;;;5137093;27;20452;-47
2021/09/12 07:53:33;;;;;;;4.27;3.87;;;26.30;82.50;;;;;;5125759;27;20246;-47
2021/09/12 07:55:59;;;;;;;3.87;3.53;;;26.90;79.30;;;;;;5114211;27;20195;-47
2021/09/12 07:58:25;;;;;;;3.20;2.90;;;26.60;76.30;;;;;;5136311;27;20416;-46
2021/09/12 08:00:51;;;;;;;4.17;3.70;;;26.80;77.70;;;;;;5133277;27;20740;-47
2021/09/12 08:03:17;;;;;;;4.33;3.90;;;27.80;73.80;;;;;;5137497;27;20752;-47
2021/09/12 08:05:43;;;;;;;4.27;3.40;;;28.60;70.30;;;;;;5138035;27;20540;-47
2021/09/12 08:08:09;;;;;;;3.50;3.20;;;29.00;67.40;;;;;;5138419;27;20459;-47
2021/09/12 08:10:35;;;;;;;3.10;2.90;;;29.50;68.40;;;;;;5137906;27;21090;-47
2021/09/12 08:13:01;;;;;;;3.57;3.27;;;30.10;68.20;;;;;;5137258;27;20164;-51
2021/09/12 08:15:27;;;;;;;4.53;3.43;;;30.70;63.30;;;;;;5137315;27;20413;-48
2021/09/12 08:17:53;;;;;;;3.97;3.60;;;31.10;61.90;;;;;;5119640;27;20450;-46
2021/09/12 08:20:19;;;;;;;3.60;3.33;;;31.70;60.30;;;;;;5137955;27;20463;-48
2021/09/12 08:22:45;;;;;;;6.13;3.13;;;32.20;58.10;;;;;;5137714;27;20182;-48
2021/09/12 08:25:11;;;;;;;5.77;3.90;;;32.70;54.70;;;;;;5120336;27;20420;-48
2021/09/12 08:27:37;;;;;;;4.20;3.83;;;32.70;55.20;;;;;;5142409;27;20232;-48
2021/09/12 08:30:05;;;;;;;4.00;3.70;;;32.80;54.30;;;;;;5124505;27;20183;-48
2021/09/12 08:32:31;;;;;;;3.63;3.33;;;31.70;51.90;;;;;;5142358;27;20396;-48
2021/09/12 08:34:57;;;;;;;3.67;3.37;;;30.40;53.90;;;;;;5142296;27;20416;-48
2021/09/12 08:37:22;;;;;;;4.70;3.50;;;30.60;55.20;;;;;;5142394;27;20167;-48
2021/09/12 08:39:49;;;;;;;3.80;3.50;;;31.60;52.70;;;;;;5141494;27;20183;-49
2021/09/12 08:42:16;;;;;;;4.00;3.33;;;32.00;51.50;;;;;;5141170;27;20195;-48
2021/09/12 08:44:47;;;;;;;3.70;3.40;;;31.90;51.80;;;;;;5123604;27;20516;-48
2021/09/12 08:47:13;;;;;;;3.40;3.10;;;32.10;51.40;;;;;;5122670;27;20484;-48
2021/09/12 08:49:41;;;;;;;3.70;3.40;;;32.40;51.60;;;;;;5140617;27;20459;-48
2021/09/12 08:52:07;;;;;;;3.23;3.03;;;33.20;51.70;;;;;;5105557;27;20717;-48
2021/09/12 08:54:33;;;;;;;4.50;3.30;;;33.90;50.20;;;;;;5099751;28;20471;-48
2021/09/12 08:56:58;;;;;;;4.13;3.73;;;34.60;47.70;;;;;;5119415;28;20405;-48
2021/09/12 08:59:32;;;;;;;3.30;3.00;;;34.70;47.20;;;;;;5122367;27;20456;-48
2021/09/12 09:02:01;;;;;;;3.80;3.50;;;34.70;46.30;;;;;;5139954;27;20177;-48
2021/09/12 09:04:32;;;;;;;4.07;3.10;;;34.40;46.50;;;;;;5139731;27;20432;-49
2021/09/12 09:07:03;;;;;;;3.30;3.00;;;34.10;47.50;;;;;;5122286;27;20874;-48
2021/09/12 09:09:45;;;;;;;3.80;3.10;;;33.60;46.60;;;;;;5139453;27;20417;-48
2021/09/12 09:12:23;;;;;;;3.30;3.00;;;33.40;49.00;;;;;;5141174;27;20404;-48
2021/09/12 09:15:11;;;;;;;3.13;2.83;;;33.20;47.30;;;;;;5122176;27;20420;-48
2021/09/12 09:17:39;;;;;;;3.73;3.43;;;32.70;47.80;;;;;;5123394;27;20441;-48
2021/09/12 09:20:19;;;;;;;3.80;2.60;;;32.40;47.40;;;;;;5141386;27;20687;-48
2021/09/12 09:22:49;;;;;;;3.50;2.60;;;32.40;48.20;;;;;;5141316;27;20845;-48
2021/09/12 09:25:20;;;;;;;2.60;2.40;;;32.50;48.90;;;;;;5141069;27;20424;-48
2021/09/12 09:28:09;;;;;;;2.60;2.40;;;32.70;47.50;;;;;;5141687;27;20456;-49
2021/09/12 09:30:53;;;;;;;3.00;2.50;;;32.90;47.90;;;;;;5141796;27;20423;-48
2021/09/12 09:33:24;;;;;;;2.87;2.60;;;32.80;48.10;;;;;;5122555;27;20429;-43
2021/09/12 09:35:50;;;;;;;2.43;2.23;;;32.50;46.50;;;;;;5140958;27;20416;-39
2021/09/12 09:38:17;;;;;;;2.30;2.07;;;32.00;47.90;;;;;;5140871;27;20416;-43
2021/09/12 09:41:09;;;;;;;2.20;2.00;;;31.90;48.80;;;;;;5139213;27;20391;-41
2021/09/12 09:43:41;;;;;;;3.00;2.70;;;31.70;48.20;;;;;;5130357;27;20410;-41
2021/09/12 09:46:43;;;;;;;2.50;2.30;;;31.60;48.40;;;;;;5131989;27;20407;-41
2021/09/12 09:49:19;;;;;;;2.57;2.37;;;31.50;48.20;;;;;;5119107;27;20477;-39
2021/09/12 09:52:05;;;;;;;2.67;2.47;;;31.60;48.20;;;;;;5137543;27;20439;-40
2021/09/12 09:54:33;;;;;;;3.50;2.57;;;31.70;48.30;;;;;;5116932;28;20481;-43
2021/09/12 09:57:00;;;;;;;2.40;2.20;;;31.80;47.70;;;;;;5108079;28;20464;-40
2021/09/12 09:59:27;;;;;;;2.93;2.53;;;31.80;47.00;;;;;;5114840;28;20477;-40
2021/09/12 10:01:55;;;;;;;2.67;2.47;;;32.00;47.20;;;;;;5117148;27;20496;-42
2021/09/12 10:04:22;;;;;;;2.60;2.40;;;32.20;47.10;;;;;;5116434;28;20479;-42
2021/09/12 10:06:49;;;;;;;3.00;2.57;;;32.20;44.80;;;;;;5116776;28;20686;-40
2021/09/12 10:09:16;;;;;;;2.50;2.30;;;31.50;44.80;;;;;;5117385;28;20392;-40
2021/09/12 10:11:51;;;;;;;4.00;2.10;;;31.80;46.90;;;;;;5115188;28;20420;-40
2021/09/12 10:14:38;;;;;;;3.20;2.90;;;32.00;47.30;;;;;;5115000;28;20553;-39
2021/09/12 10:17:05;;;;;;;3.20;2.97;;;32.30;44.80;;;;;;5101569;28;20852;-40
2021/09/12 10:19:36;;;;;;;3.50;3.20;;;31.90;44.60;;;;;;5116041;28;20704;-39
2021/09/12 10:22:14;;;;;;;2.43;2.23;;;32.00;45.50;;;;;;5118777;28;20464;-40
2021/09/12 10:25:02;;;;;;;2.20;2.00;;;31.90;46.30;;;;;;5116914;28;20682;-42
2021/09/12 10:27:56;;;;;;;2.30;2.10;;;32.10;45.60;;;;;;5117155;28;20453;-40
2021/09/12 10:30:41;;;;;;;2.50;2.30;;;32.40;44.70;;;;;;5117832;28;20483;-40
2021/09/12 10:33:12;;;;;;;3.23;2.97;;;31.60;44.30;;;;;;5117271;28;20483;-40
2021/09/12 10:36:03;;;;;;;3.23;2.90;;;32.00;44.10;;;;;;5117309;28;20460;-39
2021/09/12 10:38:37;;;;;;;3.00;2.50;;;32.10;43.50;;;;;;5117464;28;20672;-40
2021/09/12 10:41:03;;;;;;;2.97;2.70;;;32.10;43.90;;;;;;5118216;27;20807;-41
2021/09/12 10:43:30;;;;;;;3.63;2.73;;;31.50;44.00;;;;;;5116179;28;20509;-40
2021/09/12 10:46:06;;;;;;;2.73;2.53;;;31.00;44.50;;;;;;5116678;28;20207;-41
2021/09/12 10:49:02;;;;;;;3.13;2.67;;;30.60;45.00;;;;;;5114049;28;20449;-42
2021/09/12 10:51:29;;;;;;;4.27;3.00;;;29.80;45.90;;;;;;5098454;28;20864;-40
2021/09/12 10:54:00;;;;;;;3.63;3.17;;;30.20;46.10;;;;;;5123333;27;20473;-41
2021/09/12 10:56:28;;;;;;;2.70;2.27;;;30.50;45.80;;;;;;5119673;27;20440;-40
2021/09/12 10:59:15;;;;;;;2.07;1.97;;;31.10;46.00;;;;;;5135644;27;20403;-41
2021/09/12 11:01:45;;;;;;;2.50;2.30;;;31.60;46.50;;;;;;5135558;27;20411;-42
2021/09/12 11:04:11;;;;;;;2.50;2.30;;;32.60;45.70;;;;;;5117754;27;20396;-40
2021/09/12 11:06:44;;;;;;;2.80;2.60;;;33.40;46.00;;;;;;5137011;27;20394;-41
2021/09/12 11:09:22;;;;;;;2.73;2.53;;;34.10;45.70;;;;;;5119663;27;20387;-42
2021/09/12 11:11:49;;;;;;;2.70;2.20;;;34.80;44.80;;;;;;5137172;27;20385;-40
2021/09/12 11:14:18;;;;;;;4.07;3.77;;;35.40;43.90;;;;;;5137561;27;20409;-40
2021/09/12 11:16:44;;;;;;;4.53;4.13;;;35.80;43.90;;;;;;5137192;27;20424;-40
2021/09/12 11:19:10;;;;;;;3.50;3.20;;;36.40;42.60;;;;;;5100808;27;20435;-41
2021/09/12 11:21:41;;;;;;;3.90;3.50;;;36.60;42.40;;;;;;5136946;27;20210;-41
2021/09/12 11:24:26;;;;;;;3.03;2.73;;;36.40;42.10;;;;;;5134205;27;20523;-40
2021/09/12 11:26:58;;;;;;;2.87;2.67;;;35.60;42.30;;;;;;5117415;27;20456;-41
2021/09/12 11:29:29;;;;;;;2.63;2.43;;;34.60;42.90;;;;;;5135383;27;20677;-41
2021/09/12 11:32:04;;;;;;;3.00;2.80;;;33.50;43.70;;;;;;5134332;27;20488;-41
2021/09/12 11:34:31;;;;;;;3.07;2.80;;;32.40;45.10;;;;;;5137708;27;20576;-40
2021/09/12 11:37:04;;;;;;;3.03;2.73;;;31.60;46.50;;;;;;5138744;27;20394;-39
2021/09/12 11:39:33;;;;;;;2.90;2.70;;;31.10;47.50;;;;;;5138475;27;20570;-41
2021/09/12 11:42:00;;;;;;;2.93;2.73;;;30.70;46.30;;;;;;5120811;27;20814;-41
2021/09/12 11:44:43;;;;;;;3.10;2.80;;;30.00;47.20;;;;;;5120936;27;20443;-40
2021/09/12 11:47:11;;;;;;;2.63;2.33;;;29.60;49.00;;;;;;5138464;27;20527;-45
2021/09/12 11:49:37;;;;;;;2.85;2.65;;;29.20;49.90;;;;;;5136565;27;20197;-43
2021/09/12 11:52:05;;;;;;;3.17;2.80;;;29.00;49.90;;;;;;5136405;27;20171;-40
2021/09/12 11:54:32;;;;;;;2.90;2.70;;;29.50;49.20;;;;;;5136607;27;20447;-42
2021/09/12 11:57:01;;;;;;;4.40;3.35;;;29.50;47.50;;;;;;5102167;27;20500;-40
2021/09/12 11:59:30;;;;;;;3.07;2.73;;;29.70;47.50;;;;;;5137056;27;20189;-41
2021/09/12 12:01:57;;;;;;;2.70;2.50;;;30.20;47.10;;;;;;5119644;27;20388;-40
2021/09/12 12:04:23;;;;;;;5.00;2.80;;;29.60;47.50;;;;;;5137650;27;20447;-42
2021/09/12 12:06:50;;;;;;;4.20;2.80;;;30.90;48.50;;;;;;5102044;28;20431;-43
2021/09/12 12:09:19;;;;;;;3.00;2.80;;;32.10;46.60;;;;;;5135721;27;20684;-40
2021/09/12 12:11:48;;;;;;;2.70;2.50;;;32.90;43.90;;;;;;5136484;27;20411;-43
2021/09/12 12:14:24;;;;;;;2.73;2.53;;;33.50;44.70;;;;;;5136173;27;20383;-42
2021/09/12 12:16:53;;;;;;;2.70;2.50;;;34.10;44.50;;;;;;5135895;27;20412;-42
2021/09/12 12:19:21;;;;;;;2.93;2.47;;;33.90;43.10;;;;;;5135030;27;20387;-40
2021/09/12 12:21:49;;;;;;;2.33;2.13;;;32.90;43.70;;;;;;5135975;27;20458;-42
2021/09/12 12:24:21;;;;;;;3.00;2.70;;;33.50;43.60;;;;;;5134929;27;20715;-40
2021/09/12 12:26:54;;;;;;;3.10;2.20;;;33.30;42.00;;;;;;5135299;27;20483;-41
2021/09/12 12:29:29;;;;;;;2.63;2.43;;;33.70;43.50;;;;;;5133450;27;20481;-41
2021/09/12 12:31:57;;;;;;;3.40;2.37;;;33.30;42.00;;;;;;5132817;27;20575;-42
2021/09/12 12:34:40;;;;;;;3.23;2.30;;;32.20;43.40;;;;;;5115045;27;20399;-40
2021/09/12 12:37:06;;;;;;;2.73;2.40;;;33.10;43.60;;;;;;5133159;27;20379;-43
2021/09/12 12:39:32;;;;;;;3.00;2.70;;;33.80;42.10;;;;;;5133652;28;20481;-45
2021/09/12 12:41:58;;;;;;;2.73;2.20;;;33.70;41.80;;;;;;5134887;27;20642;-42
2021/09/12 12:44:24;;;;;;;4.80;2.50;;;33.20;41.20;;;;;;5135242;27;20456;-41
2021/09/12 12:46:52;;;;;;;2.97;2.70;;;32.20;41.90;;;;;;5135796;27;20519;-41
2021/09/12 12:49:28;;;;;;;3.20;2.77;;;32.30;42.60;;;;;;5136255;27;20391;-41
2021/09/12 12:52:04;;;;;;;2.80;2.60;;;33.00;44.70;;;;;;5137911;27;20405;-41